createdAt,value
2018-12-23T00:08:52.142Z,10.50
2018-12-23T00:18:54.597Z,7.03
2018-12-23T00:28:57.053Z,7.90
2018-12-23T00:38:59.511Z,5.33
2018-12-23T00:49:01.963Z,5.87
2018-12-23T00:59:04.451Z,6.93
2018-12-23T01:09:07.079Z,8.40
2018-12-23T01:19:09.577Z,10.37
2018-12-23T01:29:12.071Z,11.40
2018-12-23T01:39:14.518Z,9.67
2018-12-23T01:49:16.976Z,7.10
2018-12-23T01:59:19.450Z,11.83
2018-12-23T02:09:21.942Z,7.47
2018-12-23T02:19:24.400Z,10.97
2018-12-23T02:29:26.862Z,7.60
2018-12-23T02:39:29.411Z,11.43
2018-12-23T02:49:31.865Z,7.80
2018-12-23T02:59:34.310Z,7.23
2018-12-23T03:09:36.770Z,7.63
2018-12-23T03:19:39.229Z,6.53
2018-12-23T03:29:41.679Z,11.03
2018-12-23T03:39:44.151Z,6.57
2018-12-23T03:49:46.706Z,15.57
2018-12-23T03:59:49.162Z,10.70
2018-12-23T04:09:51.611Z,9.30
2018-12-23T04:19:54.066Z,11.13
2018-12-23T04:29:56.523Z,16.80
2018-12-23T04:39:58.970Z,9.90
2018-12-23T04:50:01.429Z,10.43
2018-12-23T05:00:04.965Z,9.03
2018-12-23T05:10:07.474Z,9.63
2018-12-23T05:20:09.953Z,10.37
2018-12-23T05:30:12.399Z,6.83
2018-12-23T05:40:14.851Z,7.53
2018-12-23T05:50:17.311Z,11.50
2018-12-23T06:00:19.797Z,9.33
2018-12-23T06:10:22.269Z,12.20
2018-12-23T06:20:24.721Z,8.87
2018-12-23T06:30:27.174Z,8.13
2018-12-23T06:40:29.630Z,9.57
2018-12-23T06:50:32.091Z,10.67
2018-12-23T07:00:34.550Z,12.53
2018-12-23T07:10:37.018Z,8.20
2018-12-23T07:20:39.569Z,11.03
2018-12-23T07:30:42.016Z,10.67
2018-12-23T07:40:44.480Z,9.60
2018-12-23T07:50:46.927Z,9.83
2018-12-23T08:00:49.603Z,9.03
2018-12-23T08:10:52.078Z,16.33
2018-12-23T08:20:54.538Z,8.50
2018-12-23T08:30:57.011Z,7.50
2018-12-23T08:40:59.481Z,7.00
2018-12-23T08:51:02.046Z,8.87
2018-12-23T09:01:04.805Z,8.80
2018-12-23T09:11:07.266Z,10.80
2018-12-23T09:21:09.719Z,9.33
2018-12-23T09:31:12.184Z,19.27
2018-12-23T09:41:14.639Z,7.90
2018-12-23T09:51:17.103Z,13.43
2018-12-23T10:01:19.567Z,11.37
2018-12-23T10:11:22.030Z,12.57
2018-12-23T10:21:24.486Z,10.63
2018-12-23T10:31:26.946Z,15.50
2018-12-23T10:41:29.455Z,14.57
2018-12-23T10:51:31.906Z,14.37
2018-12-23T11:01:34.363Z,12.43
2018-12-23T11:11:36.840Z,12.80
2018-12-23T11:21:39.290Z,12.23
2018-12-23T11:31:41.756Z,14.87
2018-12-23T11:41:44.216Z,12.40
2018-12-23T11:51:46.679Z,14.40
2018-12-23T12:01:49.145Z,10.97
2018-12-23T12:11:51.600Z,16.87
2018-12-23T12:21:54.074Z,14.60
2018-12-23T12:31:56.539Z,22.83
2018-12-23T12:41:58.999Z,13.97
2018-12-23T12:52:01.495Z,14.13
2018-12-23T13:02:04.019Z,18.43
2018-12-23T13:12:06.494Z,14.87
2018-12-23T13:22:08.956Z,12.63
2018-12-23T13:32:11.414Z,14.20
2018-12-23T13:42:18.547Z,10.47
2018-12-23T13:52:26.649Z,11.47
2018-12-23T14:02:42.971Z,19.37
2018-12-23T14:12:45.424Z,11.87
2018-12-23T14:22:47.887Z,12.80
2018-12-23T14:32:50.338Z,8.10
2018-12-23T14:42:52.794Z,8.37
2018-12-23T14:52:55.303Z,8.67
2018-12-23T15:02:57.844Z,11.07
2018-12-23T15:13:00.301Z,9.90
2018-12-23T15:23:10.570Z,9.47
2018-12-23T15:33:07.258Z,8.97
2018-12-23T15:43:09.710Z,9.97
2018-12-23T15:53:12.175Z,4.50
2018-12-23T16:03:14.626Z,5.87
2018-12-23T16:13:17.074Z,8.37
2018-12-23T16:23:19.534Z,10.77
2018-12-23T16:33:22.038Z,11.90
2018-12-23T16:43:24.502Z,9.77
2018-12-23T16:53:27.087Z,8.77
2018-12-23T17:04:15.720Z,11.60
2018-12-23T17:14:31.305Z,12.83
2018-12-23T17:24:46.782Z,10.37
2018-12-23T17:35:02.777Z,11.87
2018-12-23T17:45:18.280Z,11.23
2018-12-23T17:55:34.100Z,9.27
2018-12-23T18:05:50.112Z,9.90
2018-12-23T18:16:05.735Z,9.87
2018-12-23T18:26:21.691Z,13.73
2018-12-23T18:36:37.628Z,13.80
2018-12-23T18:46:53.619Z,13.17
2018-12-23T18:57:09.275Z,13.30
2018-12-23T19:07:24.839Z,9.87
2018-12-23T19:17:40.473Z,4.97
2018-12-23T19:27:55.776Z,3.20
2018-12-23T19:38:11.558Z,3.20
2018-12-23T19:59:00.464Z,3.60
2018-12-23T20:09:16.045Z,2.53
2018-12-23T20:19:31.892Z,4.17
2018-12-23T20:29:47.883Z,1.60
2018-12-23T20:40:03.724Z,1.47
2018-12-23T21:00:55.436Z,2.27
2018-12-23T21:11:15.943Z,1.33
2018-12-23T21:21:28.287Z,2.33
2018-12-23T21:31:44.363Z,13.90
2018-12-23T21:41:59.677Z,1.50
2018-12-23T21:52:15.004Z,0.80
2018-12-23T22:02:30.575Z,0.90
2018-12-23T22:12:46.014Z,1.00
2018-12-23T22:23:01.591Z,4.13
2018-12-23T22:43:51.528Z,2.30
2018-12-23T22:54:07.345Z,2.63
2018-12-23T23:04:22.964Z,1.10
2018-12-23T23:25:12.360Z,0.93
2018-12-23T23:35:28.364Z,1.70
2018-12-23T23:45:44.048Z,0.70
2018-12-23T23:56:00.160Z,0.70
